WetterOnline ( https://www.wetteronline.at )

Wetter aktuell Neustadt i.H.

Aktuelles Wetter: Pelzerhaken/Neustadt i.H. (2m)

6-stündlich | Neueste Meldungen
Ortszeit Temperatur Wetter
So, 15.12. 19:00 7.8° C bewölkt
So, 15.12. 13:00 8.5° C leicht bewölkt
So, 15.12. 7:00 4.1° C bedeckt
So, 15.12. 1:00 5.3° C wolkig
Sa, 14.12. 19:00 5.8° C leicht bewölkt
Sa, 14.12. 13:00 4.7° C leichter Regen
Sa, 14.12. 7:00 3.9° C bedeckt
Sa, 14.12. 1:00 1.9° C leichter Regen
Ortszeit Temperatur Wetter
So, 15.12. 21:00 7.2° C leicht bewölkt
So, 15.12. 20:50 7.2° C leicht bewölkt
So, 15.12. 20:40 7.3° C fast wolkenlos
So, 15.12. 20:30 7.6° C leicht bewölkt
So, 15.12. 20:20 7.6° C leicht bewölkt
So, 15.12. 20:10 7.5° C leicht bewölkt
So, 15.12. 20:00 7.3° C leicht bewölkt
So, 15.12. 19:30 7.4° C wolkig
So, 15.12. 19:00 7.8° C bewölkt
So, 15.12. 18:30 7.9° C leicht bewölkt
So, 15.12. 18:00 7.8° C wolkenlos
Ortszeit Relative Feuchte Sichtweite
So, 15.12. 19:00 74% 30 km
So, 15.12. 13:00 58% 45 km
So, 15.12. 7:00 87% 21 km
So, 15.12. 1:00 79% 35 km
Sa, 14.12. 19:00 81% 30 km
Sa, 14.12. 13:00 93% 19 km
Sa, 14.12. 7:00 99% 4.6 km
Sa, 14.12. 1:00 96% 5.0 km
Ortszeit Relative Feuchte Sichtweite
So, 15.12. 21:00 81% 35 km
So, 15.12. 20:50 81% -
So, 15.12. 20:40 80% -
So, 15.12. 20:30 78% 30 km
So, 15.12. 20:20 78% -
So, 15.12. 20:10 79% -
So, 15.12. 20:00 79% 35 km
So, 15.12. 19:30 77% 40 km
So, 15.12. 19:00 74% 30 km
So, 15.12. 18:30 69% 30 km
So, 15.12. 18:00 67% 35 km
Ortszeit Niederschlagsmenge Niederschlagsart
So, 15.12. 19:00 2 l/m2 in 12 Std. Regen
So, 15.12. 13:00 2 l/m2 in 6 Std. Regen
So, 15.12. 7:00 0.1 l/m2 in 12 Std. -
So, 15.12. 1:00 0.1 l/m2 in 6 Std. Regen
Sa, 14.12. 19:00 0.7 l/m2 in 12 Std. Regen
Sa, 14.12. 13:00 0.5 l/m2 in 6 Std. Regen
Sa, 14.12. 7:00 3 l/m2 in 12 Std. Schnee, Regen
Sa, 14.12. 1:00 0.1 l/m2 in 6 Std. Schnee, Regen
Ortszeit Niederschlagsmenge Niederschlagsart
So, 15.12. 21:00 0.1 l/m2 in 1 Std. Sprühregen
So, 15.12. 20:50 keine Meldung -
So, 15.12. 20:40 keine Meldung -
So, 15.12. 20:30 0.1 l/m2 in 1 Std. Schnee
So, 15.12. 20:20 keine Meldung -
So, 15.12. 20:10 keine Meldung -
So, 15.12. 20:00 0.1 l/m2 in 1 Std. Regen
So, 15.12. 19:30 0.1 l/m2 in 1 Std. Schneeregen
So, 15.12. 19:00 0.1 l/m2 in 1 Std. Regen
So, 15.12. 18:30 0.0 l/m2 in 1 Std. -
So, 15.12. 18:00 0.0 l/m2 in 1 Std. -
Ortszeit Stärke Spitze Richtung
km/h Bft. km/h Grad Sektor
So, 15.12. 19:00 26 4 87 240° SW
So, 15.12. 13:00 37 5 78 250° W
So, 15.12. 7:00 41 6 59 170° S
So, 15.12. 1:00 36 5 58 240° SW
Sa, 14.12. 19:00 31 5 56 230° SW
Sa, 14.12. 13:00 32 5 50 230° SW
Sa, 14.12. 7:00 31 5 41 210° SW
Sa, 14.12. 1:00 22 4 31 190° S
Ortszeit Stärke Spitze Richtung
km/h Bft. km/h Grad Sektor
So, 15.12. 21:00 30 5 50 240° SW
So, 15.12. 20:50 30 5 - 240° SW
So, 15.12. 20:40 29 5 - 240° SW
So, 15.12. 20:30 31 5 46 240° SW
So, 15.12. 20:20 31 5 - 240° SW
So, 15.12. 20:10 30 5 - 240° SW
So, 15.12. 20:00 30 5 59 240° SW
So, 15.12. 19:30 33 5 59 240° SW
So, 15.12. 19:00 26 4 61 240° SW
So, 15.12. 18:30 33 5 61 240° SW
So, 15.12. 18:00 39 6 69 240° SW
Ortszeit Untergrenze Bedeckung Gattung
total tief tief mittel hoch
So, 15.12. 19:00 780 m 7/8 7/8 - - -
So, 15.12. 13:00 1410 m 4/8 4/8 - - -
So, 15.12. 7:00 3300 m 8/8 8/8 - - -
So, 15.12. 1:00 660 m 5/8 5/8 - - -
Sa, 14.12. 19:00 5700 m 1/8 4/8 - - -
Sa, 14.12. 13:00 450 m 8/8 8/8 - - -
Sa, 14.12. 7:00 150 m 8/8 8/8 - - -
Sa, 14.12. 1:00 210 m 8/8 8/8 - - -
Ortszeit Bedeckungsgrad in Achtel und Wolkenuntergrenze
So, 15.12. 21:00 2(780m)
So, 15.12. 20:50 2(780m)
So, 15.12. 20:40 1(1350m)
So, 15.12. 20:30 1(780m) 4(1350m)
So, 15.12. 20:20 1(780m) 4(1350m)
So, 15.12. 20:10 1(780m) 3(1380m)
So, 15.12. 20:00 2(1440m) 4(1410m)
So, 15.12. 19:30 3(780m) 6(1410m) 6(1500m)
So, 15.12. 19:00 4(780m) 7(1440m) 7(1500m)
So, 15.12. 18:30 2(1500m) 4(1500m)
So, 15.12. 18:00 keine Wolken
Ortszeit Luftdruck NN (hPa) Tendenz (hPa in 3 Std.)
So, 15.12. 19:00 999 + 4,2
So, 15.12. 13:00 992 + 2,2
So, 15.12. 7:00 992 - 3,1
So, 15.12. 1:00 994 + 3,5
Sa, 14.12. 19:00 987 + 2,2
Sa, 14.12. 13:00 983 + 1,5
Sa, 14.12. 7:00 981 - 0,9
Sa, 14.12. 1:00 983 - 0,4
Ortszeit Luftdruck NN (hPa) Tendenz (hPa in 3 Std.)
So, 15.12. 21:00 1001 + 3,6
So, 15.12. 20:50 1001 keine Meldung
So, 15.12. 20:40 1001 keine Meldung
So, 15.12. 20:30 1000 + 3,6
So, 15.12. 20:20 1000 keine Meldung
So, 15.12. 20:10 1000 keine Meldung
So, 15.12. 20:00 1000 + 3,8
So, 15.12. 19:30 999 + 4,1
So, 15.12. 19:00 999 + 4,2
So, 15.12. 18:30 998 + 4,3
So, 15.12. 18:00 997 + 4,2
Ortszeit Schneehöhe (cm)
So, 15.12. 19:00 0
So, 15.12. 13:00 0
So, 15.12. 7:00 0
So, 15.12. 1:00 0
Sa, 14.12. 19:00 0
Sa, 14.12. 13:00 0
Sa, 14.12. 7:00 0
Sa, 14.12. 1:00 0
Ortszeit Schneehöhe (cm)
So, 15.12. 21:00 0
So, 15.12. 20:50 0
So, 15.12. 20:40 0
So, 15.12. 20:30 0
So, 15.12. 20:20 0
So, 15.12. 20:10 0
So, 15.12. 20:00 0
So, 15.12. 19:30 0
So, 15.12. 19:00 0
So, 15.12. 18:30 0
So, 15.12. 18:00 0
Link zu dieser Seite / Seite empfehlen

Das Wetter in ...